Time;durP1;ratioP1;P1;durP2;ratioP2;P2;SDS_P1;SDS_P2;PMS_P1;PMS_P2;Temp;Humidity;BMP_temperature;BMP_pressure;BME280_temperature;BME280_humidity;BME280_pressure;Samples;Min_cycle;Max_cycle;Signal;HPM_P1;HPM_P2
2023/02/09 00:01:14;;;;;;;25.17;11.80;;;-6.80;99.90;;;;;;4197597;28;20578;-69
2023/02/09 00:03:15;;;;;;;25.60;11.97;;;-6.80;99.90;;;;;;4197339;28;20176;-69
2023/02/09 00:05:16;;;;;;;26.63;13.53;;;-6.70;99.90;;;;;;4197318;28;20444;-68
2023/02/09 00:07:17;;;;;;;39.30;18.17;;;-6.80;99.90;;;;;;4197247;28;20199;-69
2023/02/09 00:09:17;;;;;;;25.77;12.77;;;-6.80;99.90;;;;;;4197697;28;20183;-69
2023/02/09 00:13:48;;;;;;;29.23;13.37;;;-7.00;99.90;;;;;;4197810;28;20167;-68
2023/02/09 00:15:55;;;;;;;28.07;12.23;;;-7.00;99.90;;;;;;4197280;28;20437;-67
2023/02/09 00:17:56;;;;;;;28.92;12.98;;;-7.00;99.90;;;;;;4196293;28;20649;-68
2023/02/09 00:19:56;;;;;;;22.77;11.50;;;-7.00;99.70;;;;;;4196993;28;20210;-68
2023/02/09 00:21:57;;;;;;;21.33;9.90;;;-7.10;98.90;;;;;;4197387;28;20680;-68
2023/02/09 00:23:59;;;;;;;25.47;11.17;;;-7.10;98.80;;;;;;4197244;28;20190;-69
2023/02/09 00:26:02;;;;;;;25.70;12.00;;;-7.00;99.10;;;;;;4195837;28;20512;-68
2023/02/09 00:28:03;;;;;;;26.05;12.52;;;-7.10;99.20;;;;;;4195961;28;20455;-68
2023/02/09 00:30:06;;;;;;;25.43;11.47;;;-7.10;99.90;;;;;;4196759;28;20195;-67
2023/02/09 00:32:06;;;;;;;26.73;11.60;;;-7.10;99.90;;;;;;4196737;28;20215;-68
2023/02/09 00:34:08;;;;;;;28.57;12.93;;;-7.20;99.90;;;;;;4195867;28;20527;-69
2023/02/09 00:36:12;;;;;;;29.17;13.07;;;-7.10;99.90;;;;;;4196947;28;20183;-68
2023/02/09 00:38:13;;;;;;;24.13;11.63;;;-7.30;99.80;;;;;;4196670;28;20195;-68
2023/02/09 00:40:14;;;;;;;26.45;12.88;;;-7.20;99.90;;;;;;4196781;28;20253;-68
2023/02/09 00:42:14;;;;;;;29.53;13.67;;;-7.10;99.90;;;;;;4196954;28;20716;-68
2023/02/09 00:44:15;;;;;;;22.13;11.17;;;-7.10;99.90;;;;;;4196735;28;20194;-67
2023/02/09 00:46:16;;;;;;;21.00;9.87;;;-7.10;99.90;;;;;;4179027;28;20176;-68
2023/02/09 00:48:16;;;;;;;19.80;9.83;;;-7.20;99.90;;;;;;4196506;28;20727;-68
2023/02/09 00:50:17;;;;;;;21.97;11.40;;;-7.10;99.80;;;;;;4196050;28;20180;-68
2023/02/09 00:52:18;;;;;;;24.27;12.57;;;-7.20;99.10;;;;;;4195496;28;20867;-67
2023/02/09 00:54:19;;;;;;;24.73;12.00;;;-7.20;99.20;;;;;;4196423;28;20475;-67
2023/02/09 00:56:19;;;;;;;23.80;10.20;;;-7.30;99.90;;;;;;4196614;28;20236;-67
2023/02/09 00:58:20;;;;;;;27.60;10.67;;;-7.40;99.90;;;;;;4196681;28;20195;-67
2023/02/09 01:00:21;;;;;;;25.07;11.10;;;-7.40;99.90;;;;;;4196631;28;20225;-70
2023/02/09 01:02:21;;;;;;;29.00;12.80;;;-7.50;99.90;;;;;;4196723;28;20175;-67
2023/02/09 01:04:22;;;;;;;24.73;11.30;;;-7.50;99.90;;;;;;4196520;28;20179;-67
2023/02/09 01:06:23;;;;;;;24.10;10.67;;;-7.40;99.90;;;;;;4196957;28;20215;-67
2023/02/09 01:08:24;;;;;;;25.93;11.63;;;-7.40;99.90;;;;;;4196184;28;20352;-67
2023/02/09 01:10:25;;;;;;;28.17;11.07;;;-7.40;99.90;;;;;;4196498;28;20206;-69
2023/02/09 01:12:25;;;;;;;21.50;10.10;;;-7.40;99.90;;;;;;4196497;28;20425;-67
2023/02/09 01:14:26;;;;;;;28.03;11.67;;;-7.60;99.90;;;;;;4196538;28;20686;-67
2023/02/09 01:16:29;;;;;;;22.53;10.67;;;-7.60;99.90;;;;;;4196439;28;20176;-67
2023/02/09 01:18:29;;;;;;;21.85;11.05;;;-7.60;99.90;;;;;;4194258;28;20196;-67
2023/02/09 01:20:30;;;;;;;21.83;10.67;;;-7.50;99.90;;;;;;4179713;28;20184;-68
2023/02/09 01:22:31;;;;;;;20.43;11.03;;;-7.50;99.90;;;;;;4179740;28;20184;-67
2023/02/09 01:24:32;;;;;;;24.63;10.00;;;-7.40;99.80;;;;;;4179961;28;20267;-67
2023/02/09 01:26:32;;;;;;;19.03;9.13;;;-7.50;99.20;;;;;;4180125;28;20290;-67
2023/02/09 01:28:34;;;;;;;21.97;9.50;;;-7.60;99.10;;;;;;4179566;28;20204;-68
2023/02/09 01:30:35;;;;;;;21.30;10.90;;;-7.50;99.00;;;;;;4180238;28;20184;-67
2023/02/09 01:32:36;;;;;;;20.40;10.70;;;-7.60;99.20;;;;;;4180192;28;20182;-67
2023/02/09 01:34:37;;;;;;;19.67;9.85;;;-7.60;99.90;;;;;;4179869;28;20189;-67
2023/02/09 01:36:38;;;;;;;23.60;11.40;;;-7.70;99.90;;;;;;4179839;28;20238;-67
2023/02/09 01:38:38;;;;;;;25.00;11.93;;;-7.70;99.90;;;;;;4179395;28;20184;-67
2023/02/09 01:40:39;;;;;;;21.03;11.33;;;-7.80;99.90;;;;;;4178773;28;20652;-68
2023/02/09 01:42:40;;;;;;;26.47;11.80;;;-7.70;99.90;;;;;;4178415;28;20191;-67
2023/02/09 01:44:40;;;;;;;24.30;11.07;;;-7.70;99.40;;;;;;4179515;28;20192;-67
2023/02/09 01:46:43;;;;;;;25.77;11.90;;;-7.70;99.40;;;;;;4179417;28;20211;-67
2023/02/09 01:48:44;;;;;;;23.92;11.43;;;-7.80;99.40;;;;;;4179419;28;20227;-67
2023/02/09 01:50:48;;;;;;;20.13;10.55;;;-7.80;99.90;;;;;;4179558;28;20273;-67
2023/02/09 01:52:49;;;;;;;24.35;11.77;;;-7.80;99.90;;;;;;4178387;28;20176;-67
2023/02/09 01:54:56;;;;;;;27.77;11.32;;;-7.90;99.90;;;;;;4178386;28;20184;-68
2023/02/09 01:57:06;;;;;;;28.08;11.90;;;-7.90;99.90;;;;;;4178323;28;20189;-67
2023/02/09 01:59:08;;;;;;;25.15;12.27;;;-7.90;99.90;;;;;;4177994;28;20186;-70
2023/02/09 02:01:09;;;;;;;23.67;12.27;;;-7.90;99.90;;;;;;4181583;28;20181;-67
2023/02/09 02:03:15;;;;;;;25.03;11.53;;;-7.80;99.90;;;;;;4181272;28;20214;-67
2023/02/09 02:05:17;;;;;;;20.23;9.90;;;-7.80;99.90;;;;;;4181521;28;20173;-68
2023/02/09 02:07:27;;;;;;;20.33;10.52;;;-7.90;99.90;;;;;;4182519;28;20285;-67
2023/02/09 02:09:29;;;;;;;26.35;12.25;;;-7.80;99.90;;;;;;4183552;28;20171;-67
2023/02/09 02:11:31;;;;;;;26.23;11.98;;;-7.90;99.90;;;;;;4187954;28;20188;-67
2023/02/09 02:13:32;;;;;;;23.30;11.07;;;-7.90;99.90;;;;;;4183459;28;20246;-67
2023/02/09 02:16:01;;;;;;;23.17;10.83;;;-8.00;99.60;;;;;;4182851;28;20192;-67
2023/02/09 02:18:29;;;;;;;21.40;10.93;;;-8.00;99.30;;;;;;4182582;28;20227;-67
2023/02/09 02:20:48;;;;;;;22.98;10.57;;;-7.90;99.30;;;;;;4181282;28;20616;-67
2023/02/09 02:23:26;;;;;;;19.67;10.48;;;-8.10;99.00;;;;;;4181162;28;20674;-67
2023/02/09 02:25:45;;;;;;;21.10;11.10;;;-8.20;99.00;;;;;;4182422;28;20218;-68
2023/02/09 02:28:08;;;;;;;23.70;11.38;;;-8.10;99.90;;;;;;4182121;28;20294;-68
2023/02/09 02:30:42;;;;;;;24.13;10.77;;;-8.10;99.80;;;;;;4182254;28;20195;-68
2023/02/09 02:33:48;;;;;;;23.58;10.00;;;-8.00;99.70;;;;;;4181166;28;20221;-67
2023/02/09 02:35:56;;;;;;;21.52;9.30;;;-8.00;99.90;;;;;;4160604;28;20269;-67
2023/02/09 02:38:30;;;;;;;19.92;9.32;;;-8.10;99.90;;;;;;4180757;28;20928;-67
2023/02/09 02:40:58;;;;;;;21.65;10.43;;;-8.10;99.40;;;;;;4180828;28;20366;-67
2023/02/09 02:43:29;;;;;;;22.08;10.40;;;-8.10;99.30;;;;;;4181855;28;20637;-68
2023/02/09 02:45:39;;;;;;;23.85;10.98;;;-8.10;99.00;;;;;;4182024;28;20696;-67
2023/02/09 02:47:45;;;;;;;26.25;10.68;;;-8.20;98.60;;;;;;4181872;28;20221;-67
2023/02/09 02:49:57;;;;;;;25.98;11.73;;;-8.10;98.70;;;;;;4180332;28;20165;-68
2023/02/09 02:52:03;;;;;;;26.50;11.43;;;-8.20;99.30;;;;;;4197266;28;20674;-67
2023/02/09 02:54:17;;;;;;;26.63;11.77;;;-8.20;99.90;;;;;;4198017;28;20214;-67
2023/02/09 02:56:24;;;;;;;23.65;11.63;;;-8.30;99.90;;;;;;4181033;28;20547;-67
2023/02/09 02:58:26;;;;;;;20.00;10.90;;;-8.30;99.90;;;;;;4196910;28;20213;-67
2023/02/09 03:00:37;;;;;;;19.13;10.65;;;-8.20;99.90;;;;;;4197145;28;20175;-67
2023/02/09 03:02:44;;;;;;;21.92;10.32;;;-8.10;99.90;;;;;;4198330;28;20232;-68
2023/02/09 03:04:51;;;;;;;25.85;11.15;;;-8.20;99.90;;;;;;4197143;28;20164;-66
2023/02/09 03:06:52;;;;;;;21.10;10.82;;;-8.20;99.90;;;;;;4180332;28;20204;-69
2023/02/09 03:08:56;;;;;;;25.88;10.75;;;-8.10;99.90;;;;;;4196817;28;20218;-68
2023/02/09 03:10:57;;;;;;;22.98;11.02;;;-8.10;99.90;;;;;;4198250;28;20187;-68
2023/02/09 03:13:36;;;;;;;26.17;11.80;;;-8.10;99.90;;;;;;4185463;28;20238;-68
2023/02/09 03:15:45;;;;;;;21.73;10.95;;;-8.10;99.90;;;;;;4181744;28;20209;-67
2023/02/09 03:18:00;;;;;;;23.25;11.05;;;-8.10;99.90;;;;;;4181658;28;20722;-68
2023/02/09 03:20:15;;;;;;;25.92;12.07;;;-8.10;99.90;;;;;;4180068;28;20238;-68
2023/02/09 03:22:36;;;;;;;25.75;11.73;;;-8.10;99.90;;;;;;4180351;28;20246;-68
2023/02/09 03:25:03;;;;;;;23.13;11.32;;;-8.10;99.90;;;;;;4180173;28;20175;-68
2023/02/09 03:27:21;;;;;;;28.42;11.38;;;-8.10;99.90;;;;;;4180030;28;20704;-69
2023/02/09 03:29:24;;;;;;;25.50;12.15;;;-8.10;99.90;;;;;;4179831;28;20171;-68
2023/02/09 03:31:27;;;;;;;22.27;11.23;;;-8.10;99.90;;;;;;4180140;28;20181;-68
2023/02/09 03:33:32;;;;;;;25.05;11.88;;;-8.10;99.70;;;;;;4179819;28;20188;-68
2023/02/09 03:35:38;;;;;;;25.83;11.98;;;-8.10;99.00;;;;;;4180024;28;20606;-68
2023/02/09 03:37:39;;;;;;;27.63;13.23;;;-8.10;99.30;;;;;;4180275;28;20261;-68
2023/02/09 03:39:40;;;;;;;22.37;11.40;;;-8.10;99.20;;;;;;4179536;28;20188;-68
2023/02/09 03:41:41;;;;;;;22.93;10.80;;;-8.10;99.00;;;;;;4181514;28;20186;-68
2023/02/09 03:46:01;;;;;;;22.48;9.98;;;-8.30;98.40;;;;;;4182374;28;20198;-68
2023/02/09 03:48:03;;;;;;;23.67;11.03;;;-8.20;98.30;;;;;;4197233;28;20691;-67
2023/02/09 03:50:06;;;;;;;24.88;11.63;;;-8.20;98.70;;;;;;4197407;28;20180;-67
2023/02/09 03:52:11;;;;;;;26.63;12.52;;;-8.30;99.30;;;;;;4197421;28;20294;-67
2023/02/09 03:54:12;;;;;;;26.67;12.35;;;-8.40;99.80;;;;;;4196297;28;20205;-67
2023/02/09 03:56:12;;;;;;;18.97;9.73;;;-8.50;99.90;;;;;;4197607;28;20214;-67
2023/02/09 03:58:13;;;;;;;26.53;11.33;;;-8.60;99.90;;;;;;4197353;28;20205;-67
2023/02/09 04:00:14;;;;;;;23.23;11.20;;;-8.50;99.60;;;;;;4197182;28;20214;-67
2023/02/09 04:02:15;;;;;;;22.25;11.40;;;-8.50;99.60;;;;;;4196249;28;20225;-68
2023/02/09 04:04:16;;;;;;;24.37;11.10;;;-8.50;99.70;;;;;;4195664;28;20203;-68
2023/02/09 04:06:17;;;;;;;23.93;12.67;;;-8.60;99.50;;;;;;4197326;28;20587;-67
2023/02/09 04:08:17;;;;;;;29.03;13.97;;;-8.40;99.10;;;;;;4197207;28;20208;-67
2023/02/09 04:10:18;;;;;;;23.70;10.97;;;-8.40;99.20;;;;;;4200929;28;20291;-67
2023/02/09 04:12:19;;;;;;;27.97;12.70;;;-8.40;99.30;;;;;;4200590;28;20191;-67
2023/02/09 04:14:19;;;;;;;25.83;12.23;;;-8.50;98.80;;;;;;4197508;28;20185;-68
2023/02/09 04:16:20;;;;;;;27.33;12.17;;;-8.50;98.10;;;;;;4197284;28;20691;-67
2023/02/09 04:18:21;;;;;;;23.50;11.80;;;-8.40;98.10;;;;;;4197008;28;20234;-67
2023/02/09 04:20:21;;;;;;;26.10;11.70;;;-8.40;97.50;;;;;;4196046;28;20181;-67
2023/02/09 04:22:22;;;;;;;27.63;12.40;;;-8.30;97.60;;;;;;4197187;28;20186;-67
2023/02/09 04:24:23;;;;;;;27.03;13.03;;;-8.30;97.70;;;;;;4196233;28;20179;-67
2023/02/09 04:26:23;;;;;;;28.47;12.47;;;-8.40;98.00;;;;;;4195950;28;20596;-67
2023/02/09 04:28:24;;;;;;;28.13;11.83;;;-8.40;98.30;;;;;;4197145;28;20703;-68
2023/02/09 04:30:25;;;;;;;29.10;13.87;;;-8.60;98.20;;;;;;4196948;28;20228;-68
2023/02/09 04:32:25;;;;;;;30.27;12.10;;;-8.60;98.90;;;;;;4196892;28;20215;-68
2023/02/09 04:34:26;;;;;;;30.97;12.97;;;-8.50;99.30;;;;;;4197080;28;20190;-68
2023/02/09 04:36:27;;;;;;;24.70;11.53;;;-8.50;98.60;;;;;;4197205;28;20190;-68
2023/02/09 04:38:28;;;;;;;24.70;12.37;;;-8.40;98.90;;;;;;4196511;28;20207;-67
2023/02/09 04:40:29;;;;;;;27.87;13.27;;;-8.50;98.10;;;;;;4196744;28;20198;-68
2023/02/09 04:42:31;;;;;;;26.97;12.00;;;-8.60;98.10;;;;;;4197008;28;20218;-68
2023/02/09 04:44:31;;;;;;;27.25;13.55;;;-8.50;98.40;;;;;;4196786;28;20229;-68
2023/02/09 04:46:32;;;;;;;33.57;13.90;;;-8.40;98.10;;;;;;4196837;28;20190;-68
2023/02/09 04:48:33;;;;;;;29.23;12.30;;;-8.50;98.10;;;;;;4195469;28;20215;-67
2023/02/09 04:50:34;;;;;;;27.23;11.00;;;-8.60;97.80;;;;;;4197067;28;20194;-68
2023/02/09 04:52:34;;;;;;;27.30;13.03;;;-8.50;97.40;;;;;;4196716;28;20183;-67
2023/02/09 04:54:35;;;;;;;24.23;10.93;;;-8.40;97.20;;;;;;4195251;28;20800;-68
2023/02/09 04:56:36;;;;;;;20.43;10.07;;;-8.40;97.90;;;;;;4196669;28;20180;-68
2023/02/09 05:00:56;;;;;;;25.17;12.98;;;-8.50;98.90;;;;;;4196041;28;20195;-68
2023/02/09 05:02:57;;;;;;;28.17;14.05;;;-8.50;99.10;;;;;;4194826;28;20194;-68
2023/02/09 05:04:57;;;;;;;28.67;13.80;;;-8.60;98.80;;;;;;4196480;28;20221;-68
2023/02/09 05:06:58;;;;;;;27.70;13.83;;;-8.50;98.30;;;;;;4196273;28;20203;-68
2023/02/09 05:08:59;;;;;;;27.33;14.00;;;-8.40;98.60;;;;;;4196077;28;20843;-68
2023/02/09 05:11:00;;;;;;;25.57;11.70;;;-8.50;99.00;;;;;;4196231;28;20198;-68
2023/02/09 05:13:00;;;;;;;33.08;13.18;;;-8.50;99.40;;;;;;4195142;28;20178;-68
2023/02/09 05:15:01;;;;;;;26.00;12.80;;;-8.60;98.70;;;;;;4194680;28;20187;-68
2023/02/09 05:17:02;;;;;;;24.93;13.83;;;-8.60;98.50;;;;;;4194567;28;20207;-67
2023/02/09 05:19:03;;;;;;;28.17;14.23;;;-8.50;99.00;;;;;;4185815;28;20183;-68
2023/02/09 05:21:04;;;;;;;26.35;13.50;;;-8.50;99.10;;;;;;4179292;28;20682;-67
2023/02/09 05:23:05;;;;;;;30.65;13.95;;;-8.50;99.20;;;;;;4178295;28;20281;-67
2023/02/09 05:25:06;;;;;;;26.23;13.17;;;-8.50;98.90;;;;;;4179613;28;20730;-67
2023/02/09 05:27:06;;;;;;;24.73;11.87;;;-8.60;98.70;;;;;;4179256;28;20258;-67
2023/02/09 05:29:07;;;;;;;25.73;12.47;;;-8.60;98.20;;;;;;4177919;28;20299;-68
2023/02/09 05:31:08;;;;;;;28.43;11.80;;;-8.50;98.30;;;;;;4179455;28;20178;-67
2023/02/09 05:33:09;;;;;;;22.60;10.97;;;-8.50;98.40;;;;;;4179492;28;20219;-67
2023/02/09 05:35:09;;;;;;;26.07;13.37;;;-8.50;98.80;;;;;;4179867;28;20191;-67
2023/02/09 05:37:10;;;;;;;28.60;14.60;;;-8.60;99.00;;;;;;4181375;28;20228;-67
2023/02/09 05:39:11;;;;;;;30.37;13.40;;;-8.70;99.30;;;;;;4182370;28;20187;-67
2023/02/09 05:42:13;;;;;;;32.60;14.40;;;-8.70;99.00;;;;;;4182433;28;20177;-67
2023/02/09 05:43:34;;;;;;;29.45;13.35;;;-8.70;98.70;;;;;;4182234;28;20749;-67
2023/02/09 05:45:35;;;;;;;33.17;16.73;;;-8.70;98.00;;;;;;4180905;28;20226;-67
2023/02/09 05:47:36;;;;;;;24.57;12.67;;;-8.60;97.90;;;;;;4187522;28;20761;-67
2023/02/09 05:49:36;;;;;;;26.53;12.60;;;-8.60;97.90;;;;;;4195622;28;20634;-67
2023/02/09 05:51:37;;;;;;;27.57;13.73;;;-8.90;97.60;;;;;;4198765;28;20482;-67
2023/02/09 05:53:38;;;;;;;28.20;13.40;;;-8.70;97.60;;;;;;4198688;28;20180;-67
2023/02/09 05:55:38;;;;;;;24.07;12.37;;;-8.50;98.00;;;;;;4198993;28;20667;-67
2023/02/09 05:57:39;;;;;;;26.27;13.00;;;-8.60;98.60;;;;;;4199729;28;20210;-67
2023/02/09 05:59:40;;;;;;;28.30;14.20;;;-8.60;99.10;;;;;;4198663;28;20254;-67
2023/02/09 06:01:40;;;;;;;23.47;12.00;;;-8.60;99.20;;;;;;4199036;28;20627;-67
2023/02/09 06:03:41;;;;;;;27.73;13.87;;;-8.70;98.80;;;;;;4198762;28;20651;-67
2023/02/09 06:05:44;;;;;;;25.00;12.23;;;-8.70;98.20;;;;;;4198623;28;20664;-67
2023/02/09 06:07:45;;;;;;;32.35;15.38;;;-8.70;98.30;;;;;;4198452;28;20275;-67
2023/02/09 06:09:46;;;;;;;26.23;12.70;;;-8.70;97.80;;;;;;4198206;28;20229;-67
2023/02/09 06:11:46;;;;;;;21.70;11.33;;;-8.70;97.80;;;;;;4200526;28;20540;-67
2023/02/09 06:13:48;;;;;;;29.43;12.03;;;-8.60;98.10;;;;;;4198578;28;20210;-67
2023/02/09 06:15:48;;;;;;;28.45;13.88;;;-8.50;98.40;;;;;;4197356;28;20552;-67
2023/02/09 06:17:49;;;;;;;25.43;13.13;;;-8.80;97.80;;;;;;4198424;28;20223;-67
2023/02/09 06:19:50;;;;;;;30.43;13.57;;;-8.90;98.50;;;;;;4198298;28;20175;-66
2023/02/09 06:21:50;;;;;;;26.33;12.97;;;-8.90;98.00;;;;;;4198927;28;20180;-67
2023/02/09 06:23:51;;;;;;;31.37;13.37;;;-8.90;98.20;;;;;;4198690;28;20229;-67
2023/02/09 06:25:52;;;;;;;28.00;13.43;;;-8.80;98.30;;;;;;4198357;28;20187;-67
2023/02/09 06:27:52;;;;;;;28.90;14.17;;;-8.90;98.20;;;;;;4198153;28;20238;-67
2023/02/09 06:29:53;;;;;;;24.90;11.63;;;-8.70;98.40;;;;;;4198529;28;20199;-67
2023/02/09 06:31:54;;;;;;;26.43;12.13;;;-8.70;98.40;;;;;;4198183;28;20225;-67
2023/02/09 06:33:54;;;;;;;28.17;12.10;;;-8.70;98.00;;;;;;4198567;28;20179;-67
2023/02/09 06:35:55;;;;;;;25.73;13.17;;;-8.60;98.10;;;;;;4198424;28;20721;-67
2023/02/09 06:37:57;;;;;;;23.90;13.10;;;-8.60;98.20;;;;;;4197033;28;20325;-66
2023/02/09 06:39:58;;;;;;;21.10;10.43;;;-8.60;98.30;;;;;;4196895;28;20182;-67
2023/02/09 06:41:59;;;;;;;19.47;10.77;;;-8.70;98.10;;;;;;4198370;28;20265;-67
2023/02/09 06:43:59;;;;;;;29.90;14.03;;;-8.60;98.40;;;;;;4196951;28;20276;-67
2023/02/09 06:46:11;;;;;;;30.90;13.50;;;-8.60;98.40;;;;;;4198272;28;20175;-67
2023/02/09 06:48:12;;;;;;;23.27;11.73;;;-8.70;98.30;;;;;;4179179;28;20230;-67
2023/02/09 06:50:14;;;;;;;28.43;12.07;;;-8.60;98.70;;;;;;4197806;28;20187;-67
2023/02/09 06:52:15;;;;;;;23.27;11.32;;;-8.60;98.40;;;;;;4196794;28;20179;-67
2023/02/09 06:54:16;;;;;;;24.57;12.10;;;-8.60;98.70;;;;;;4197974;28;20197;-67
2023/02/09 06:56:17;;;;;;;25.03;11.93;;;-8.50;98.70;;;;;;4196806;28;20194;-67
2023/02/09 06:58:17;;;;;;;25.87;11.60;;;-8.60;98.60;;;;;;4197732;28;20207;-65
2023/02/09 07:00:19;;;;;;;21.30;10.87;;;-8.60;98.30;;;;;;4197449;28;20553;-66
2023/02/09 07:02:19;;;;;;;20.38;10.35;;;-8.60;98.70;;;;;;4197845;28;20180;-66
2023/02/09 07:04:20;;;;;;;25.83;10.17;;;-8.50;98.90;;;;;;4197664;28;20335;-66
2023/02/09 07:06:21;;;;;;;20.80;10.33;;;-8.60;98.50;;;;;;4197749;28;20326;-68
2023/02/09 07:08:22;;;;;;;22.20;10.63;;;-8.60;98.30;;;;;;4197416;28;20222;-67
2023/02/09 07:10:23;;;;;;;18.17;9.00;;;-8.40;98.00;;;;;;4197705;28;20179;-66
2023/02/09 07:12:24;;;;;;;25.17;10.93;;;-8.20;98.00;;;;;;4197669;28;20230;-67
2023/02/09 07:14:24;;;;;;;23.23;11.20;;;-8.30;98.30;;;;;;4197666;28;20182;-67
2023/02/09 07:16:25;;;;;;;25.13;11.63;;;-8.30;98.90;;;;;;4197720;28;20175;-66
2023/02/09 07:18:26;;;;;;;20.70;10.90;;;-8.30;98.60;;;;;;4197367;28;20198;-66
2023/02/09 07:20:27;;;;;;;25.27;11.57;;;-8.10;98.20;;;;;;4197617;28;20190;-67
2023/02/09 07:22:28;;;;;;;25.93;12.47;;;-8.10;98.30;;;;;;4197612;28;20667;-68
2023/02/09 07:24:28;;;;;;;26.50;11.43;;;-8.10;98.60;;;;;;4197361;28;20179;-67
2023/02/09 07:26:29;;;;;;;26.47;13.80;;;-8.00;98.50;;;;;;4197276;28;20179;-66
2023/02/09 07:28:30;;;;;;;31.67;13.30;;;-8.00;98.30;;;;;;4190267;28;20204;-66
2023/02/09 07:30:31;;;;;;;28.17;11.47;;;-8.00;98.60;;;;;;4196295;28;20182;-67
2023/02/09 07:32:32;;;;;;;22.93;12.03;;;-8.00;98.70;;;;;;4180839;28;20182;-66
2023/02/09 07:34:34;;;;;;;25.23;12.25;;;-7.90;98.60;;;;;;4180831;28;20227;-65
2023/02/09 07:36:34;;;;;;;24.08;10.02;;;-7.70;98.30;;;;;;4180061;28;20267;-66
2023/02/09 07:38:36;;;;;;;22.70;10.60;;;-7.80;98.30;;;;;;4179272;28;20595;-67
2023/02/09 07:40:37;;;;;;;23.88;11.43;;;-7.80;98.30;;;;;;4182615;28;20203;-67
2023/02/09 07:42:38;;;;;;;23.90;11.13;;;-7.70;98.10;;;;;;4193030;28;20180;-67
2023/02/09 07:44:39;;;;;;;21.73;10.87;;;-7.60;97.40;;;;;;4195741;28;20199;-66
2023/02/09 07:46:40;;;;;;;22.63;10.10;;;-7.40;96.80;;;;;;4197005;28;20261;-67
2023/02/09 07:48:40;;;;;;;19.63;9.93;;;-7.30;96.80;;;;;;4196948;28;20936;-67
2023/02/09 07:50:48;;;;;;;24.80;11.53;;;-7.30;96.50;;;;;;4195790;28;20707;-66
2023/02/09 07:52:52;;;;;;;22.75;11.35;;;-7.20;96.10;;;;;;4197220;28;20179;-66
2023/02/09 07:54:53;;;;;;;25.88;11.35;;;-7.20;96.10;;;;;;4196923;28;20183;-66
2023/02/09 07:56:55;;;;;;;25.50;11.00;;;-7.30;96.10;;;;;;4197165;28;20727;-67
2023/02/09 07:58:56;;;;;;;19.33;9.35;;;-7.10;96.20;;;;;;4195334;28;20179;-66
2023/02/09 08:01:06;;;;;;;21.60;10.68;;;-7.10;96.40;;;;;;4197138;28;20265;-70
2023/02/09 08:03:07;;;;;;;23.38;11.00;;;-7.00;96.90;;;;;;4195969;28;20183;-69
2023/02/09 08:05:19;;;;;;;22.70;11.20;;;-7.10;97.40;;;;;;4197146;28;20180;-69
2023/02/09 08:07:20;;;;;;;24.98;11.38;;;-7.10;97.50;;;;;;4196295;28;20631;-69
2023/02/09 08:09:21;;;;;;;26.40;13.00;;;-7.10;98.00;;;;;;4195875;28;20266;-69
2023/02/09 08:11:39;;;;;;;24.70;13.27;;;-7.00;98.20;;;;;;4198290;28;20287;-69
2023/02/09 08:13:40;;;;;;;33.93;14.50;;;-7.00;98.10;;;;;;4196573;28;20238;-69
2023/02/09 08:15:46;;;;;;;26.90;14.57;;;-6.80;97.80;;;;;;4196882;28;20437;-69
2023/02/09 08:17:50;;;;;;;24.40;12.30;;;-6.70;97.70;;;;;;4195612;28;20571;-69
2023/02/09 08:19:58;;;;;;;29.97;13.40;;;-6.70;98.10;;;;;;4195311;28;20425;-69
2023/02/09 08:21:59;;;;;;;23.43;12.13;;;-6.70;98.70;;;;;;4195669;28;20517;-69
2023/02/09 08:24:01;;;;;;;21.23;11.80;;;-6.70;99.30;;;;;;4195638;28;20426;-69
2023/02/09 08:26:08;;;;;;;21.77;10.93;;;-6.60;99.90;;;;;;4196506;28;20210;-68
2023/02/09 08:28:09;;;;;;;22.67;9.50;;;-6.40;99.70;;;;;;4195199;28;20552;-68
2023/02/09 08:30:12;;;;;;;22.47;10.43;;;-6.20;99.40;;;;;;4195044;28;20422;-69
2023/02/09 08:32:13;;;;;;;20.83;11.07;;;-6.10;99.30;;;;;;4195094;28;20270;-69
2023/02/09 08:34:13;;;;;;;19.77;9.80;;;-5.80;98.90;;;;;;4196494;28;20433;-69
2023/02/09 08:36:16;;;;;;;19.43;9.00;;;-5.70;98.60;;;;;;4196187;28;20171;-67
2023/02/09 08:38:18;;;;;;;17.30;9.10;;;-5.50;98.50;;;;;;4178404;28;20212;-68
2023/02/09 08:40:19;;;;;;;30.77;10.07;;;-5.60;99.10;;;;;;4194857;28;20445;-68
2023/02/09 08:42:19;;;;;;;22.50;10.50;;;-5.30;98.70;;;;;;4194915;28;20429;-68
2023/02/09 08:44:20;;;;;;;22.67;10.70;;;-5.30;98.40;;;;;;4196160;28;20202;-68
2023/02/09 08:46:21;;;;;;;28.53;12.23;;;-5.10;98.40;;;;;;4194931;28;20195;-68
2023/02/09 08:48:21;;;;;;;19.80;10.97;;;-5.00;97.80;;;;;;4196185;28;20302;-69
2023/02/09 08:50:22;;;;;;;21.70;12.40;;;-4.80;98.00;;;;;;4195859;28;20191;-69
2023/02/09 08:52:23;;;;;;;27.27;11.90;;;-4.60;97.90;;;;;;4196234;28;20581;-68
2023/02/09 08:54:24;;;;;;;29.23;12.43;;;-4.50;97.90;;;;;;4196229;28;20216;-69
2023/02/09 08:56:25;;;;;;;28.20;12.97;;;-4.30;97.70;;;;;;4196093;28;20561;-68
2023/02/09 08:58:26;;;;;;;22.33;11.83;;;-4.20;97.80;;;;;;4195782;28;20443;-69
2023/02/09 09:00:27;;;;;;;25.90;13.00;;;-4.10;97.60;;;;;;4194819;28;20181;-69
2023/02/09 09:02:28;;;;;;;24.83;11.33;;;-4.10;98.40;;;;;;4196130;28;20428;-69
2023/02/09 09:04:29;;;;;;;24.93;12.53;;;-3.90;98.90;;;;;;4194837;28;20575;-69
2023/02/09 09:06:29;;;;;;;28.57;13.70;;;-3.70;98.60;;;;;;4194686;28;20245;-69
2023/02/09 09:08:32;;;;;;;24.67;12.07;;;-3.50;98.50;;;;;;4195649;28;20745;-70
2023/02/09 09:10:33;;;;;;;25.23;13.00;;;-3.30;98.40;;;;;;4195563;28;20178;-69
2023/02/09 09:12:34;;;;;;;32.17;12.20;;;-3.30;99.00;;;;;;4196093;28;20954;-69
2023/02/09 09:14:35;;;;;;;26.63;11.80;;;-3.20;99.30;;;;;;4194813;28;20228;-69
2023/02/09 09:16:36;;;;;;;22.47;11.00;;;-2.90;99.00;;;;;;4195947;28;20992;-69
2023/02/09 09:18:36;;;;;;;25.50;12.93;;;-2.60;98.40;;;;;;4194654;28;20486;-69
2023/02/09 09:20:41;;;;;;;26.40;12.37;;;-2.40;98.50;;;;;;4196031;28;20655;-69
2023/02/09 09:22:42;;;;;;;22.30;11.57;;;-2.10;98.30;;;;;;4194677;28;20550;-69
2023/02/09 09:24:42;;;;;;;19.53;10.17;;;-2.10;98.70;;;;;;4194767;28;20451;-69
2023/02/09 09:26:43;;;;;;;19.37;9.60;;;-2.00;98.60;;;;;;4193819;28;20253;-69
2023/02/09 09:28:44;;;;;;;23.27;10.67;;;-1.80;97.90;;;;;;4179435;28;20633;-69
2023/02/09 09:30:45;;;;;;;20.43;10.97;;;-1.50;98.00;;;;;;4177950;28;20197;-69
2023/02/09 09:32:45;;;;;;;26.53;12.47;;;-1.30;98.00;;;;;;4179304;28;20200;-69
2023/02/09 09:34:46;;;;;;;27.57;13.30;;;-1.00;97.60;;;;;;4177910;28;20673;-69
2023/02/09 09:36:47;;;;;;;26.13;12.57;;;-0.90;97.90;;;;;;4179127;28;20185;-70
2023/02/09 09:38:47;;;;;;;22.93;12.60;;;-0.80;98.20;;;;;;4179155;28;20184;-70
2023/02/09 09:40:48;;;;;;;22.50;10.93;;;-0.60;97.60;;;;;;4179268;28;20180;-70
2023/02/09 09:42:56;;;;;;;22.50;10.83;;;-0.40;96.70;;;;;;4178434;28;20180;-70
2023/02/09 09:44:57;;;;;;;19.97;11.17;;;0.00;97.50;;;;;;4178444;28;20200;-69
2023/02/09 09:47:06;;;;;;;18.80;10.40;;;0.10;97.30;;;;;;4178164;28;20515;-70
2023/02/09 09:49:19;;;;;;;22.93;11.13;;;0.40;97.00;;;;;;4177997;28;20714;-70
2023/02/09 09:51:41;;;;;;;24.13;11.73;;;0.50;96.80;;;;;;4178076;28;20929;-70
2023/02/09 09:53:45;;;;;;;22.47;11.93;;;0.40;98.30;;;;;;4178046;28;20821;-70
2023/02/09 09:55:46;;;;;;;19.03;9.90;;;0.70;98.90;;;;;;4177878;28;20538;-70
2023/02/09 09:57:47;;;;;;;23.17;10.90;;;1.00;99.90;;;;;;4177985;28;20473;-69
2023/02/09 09:59:48;;;;;;;18.53;10.33;;;1.50;99.90;;;;;;4177828;28;20557;-68
2023/02/09 10:01:51;;;;;;;15.83;9.70;;;2.40;98.90;;;;;;4179275;28;20426;-69
2023/02/09 10:03:56;;;;;;;16.63;9.97;;;3.20;97.20;;;;;;4178011;28;20426;-68
2023/02/09 10:06:11;;;;;;;16.63;9.40;;;3.80;98.00;;;;;;4177893;28;20445;-69
2023/02/09 10:08:22;;;;;;;19.23;10.23;;;4.70;95.00;;;;;;4179757;28;20935;-69
2023/02/09 10:10:48;;;;;;;18.47;10.60;;;5.50;93.80;;;;;;4179071;28;20204;-70
2023/02/09 10:12:52;;;;;;;16.53;10.07;;;6.30;92.30;;;;;;4178251;28;20207;-70
2023/02/09 10:14:52;;;;;;;17.70;9.50;;;6.90;91.20;;;;;;4179383;28;20184;-70
2023/02/09 10:16:53;;;;;;;16.87;9.83;;;7.30;85.10;;;;;;4179076;28;20185;-70
2023/02/09 10:19:00;;;;;;;14.17;9.07;;;7.70;84.30;;;;;;4179061;28;20185;-70
2023/02/09 10:21:09;;;;;;;17.03;9.67;;;8.10;85.00;;;;;;4178009;28;20190;-70
2023/02/09 10:23:24;;;;;;;16.17;9.20;;;8.20;80.00;;;;;;4179758;28;20719;-70
2023/02/09 10:26:01;;;;;;;16.53;9.33;;;8.60;78.10;;;;;;4180982;28;20169;-71
2023/02/09 10:28:05;;;;;;;13.00;8.27;;;8.90;76.40;;;;;;4181854;28;20565;-71
2023/02/09 10:30:27;;;;;;;14.40;9.00;;;9.00;74.70;;;;;;4181971;28;20192;-71
2023/02/09 10:32:40;;;;;;;14.80;8.80;;;9.20;72.30;;;;;;4181057;28;20169;-72
2023/02/09 10:34:50;;;;;;;15.67;9.43;;;9.60;68.10;;;;;;4181917;28;20218;-71
2023/02/09 10:36:53;;;;;;;13.63;8.23;;;9.30;58.40;;;;;;4180539;28;20188;-71